Panorama — SVAG5 — position and weather

sailwx.info

Track history (hours):
 
Tides and Currents Weather Stations Pressure Air Temp Water Temp Dewpoint Dewpoint Depression Visibility Wind Speed Wind Dir Waves Ship Positions

Panorama

Last reported at 2017-Oct-31 07:38 UTC. Time now 2017-Nov-18 01:09 UTC.
Position N 38°03' E 024°19'.
Warning: this ship's position is 17 days out of date.

Length 100 m; draft 3.6 m.

Type: Ship. MMSI: 241133000.

Date/timePositionNaut miles runAvg speedWind from/ knotsBaromVisibWave heightAir tempDewpointWater temp
2017-Oct-31 07:38N 38°03' E 024°19'13 8.3
2017-Oct-31 06:00N 38°01' E 024°02'3 0.3
2017-Oct-30 16:22N 38°02' E 024°07'4 4.6
2017-Oct-30 15:31N 38°01' E 024°02'013.8
2017-Oct-30 15:30N 38°01' E 024°02'814.1
2017-Oct-30 14:55N 38°02' E 024°12'7 4.2
2017-Oct-30 13:11N 38°01' E 024°03'2 0.4
2017-Oct-30 08:49N 38°01' E 024°01'414.0
2017-Oct-30 08:30N 38°02' E 024°06'1010.8
2017-Oct-30 07:34N 38°03' E 024°19'1213.9
2017-Oct-30 06:41N 38°02' E 024°04'1 2.0
2017-Oct-30 06:01N 38°01' E 024°02'013.9
2017-Oct-30 06:00N 38°01' E 024°02'5 0.4
2017-Oct-29 18:43N 38°02' E 024°08'414.6
2017-Oct-29 18:29N 38°02' E 024°04'1 2.0
2017-Oct-29 18:00N 38°01' E 024°02'813.8
2017-Oct-29 17:27N 38°02' E 024°12'4 2.4
2017-Oct-29 15:40N 38°02' E 024°07'214.4
2017-Oct-29 15:30N 38°02' E 024°04'1 2.0
2017-Oct-29 15:00N 38°02' E 024°02'813.8
2017-Oct-29 14:27N 38°02' E 024°12'5 0.7
2017-Oct-29 07:21N 38°02' E 024°06'3 3.9
2017-Oct-29 06:33N 38°01' E 024°02'113.7
2017-Oct-29 06:27N 38°01' E 024°04'613.6
2017-Oct-29 06:00N 38°02' E 024°12'6 0.4
2017-Oct-28 15:40N 38°03' E 024°19'14 8.4
2017-Oct-28 14:01N 38°01' E 024°02'014.3
2017-Oct-28 14:00N 38°01' E 024°02'4 0.8
2017-Oct-28 08:52N 38°02' E 024°07'4 4.4
2017-Oct-28 07:52N 38°01' E 024°01'513.9
2017-Oct-28 07:30N 38°02' E 024°08'3 1.5
2017-Oct-28 05:45N 38°02' E 024°05'2 3.3
2017-Oct-28 05:03N 38°01' E 024°02'114.0
2017-Oct-28 05:00N 38°01' E 024°02'1113.8
2017-Oct-28 04:13N 38°02' E 024°16'9 0.8
2017-Oct-27 16:17N 38°02' E 024°05'3 2.5
2017-Oct-27 15:04N 38°01' E 024°01'113.2
2017-Oct-27 15:00N 38°01' E 024°02'2 0.7
2017-Oct-27 12:15N 38°02' E 024°04'3 0.6
2017-Oct-27 07:36N 38°01' E 024°01'213.4
2017-Oct-27 07:30N 38°01' E 024°03'713.9
2017-Oct-27 06:59N 38°02' E 024°12'  
2017-Oct-23 05:01N 38°01' E 024°02'014.2
2017-Oct-23 05:00N 38°01' E 024°02'2 0.2
2017-Oct-22 17:30N 38°02' E 024°04'2 3.7
2017-Oct-22 17:00N 38°01' E 024°02'814.0
2017-Oct-22 16:25N 38°02' E 024°12'7 3.5
2017-Oct-22 14:30N 38°02' E 024°04'1 2.4
2017-Oct-22 14:00N 38°01' E 024°03'4 0.5
2017-Oct-22 06:23N 38°02' E 024°07'4 4.3
2017-Oct-22 05:30N 38°01' E 024°02'1113.9
2017-Oct-22 04:41N 38°02' E 024°17'12 0.8
2017-Oct-21 14:03N 38°01' E 024°01'  
Track history (hours):
 
Tides and Currents Weather Stations Pressure Air Temp Water Temp Dewpoint Dewpoint Depression Visibility Wind Speed Wind Dir Waves Ship Positions

Panorama

Last reported at 2017-Oct-31 07:38 UTC. Time now 2017-Nov-18 01:09 UTC.
Position N 38°03' E 024°19'.
Warning: this ship's position is 17 days out of date.

Length 100 m; draft 3.6 m.

Type: Ship. MMSI: 241133000.

Date/timePositionNaut miles runAvg speedWind from/ knotsBaromVisibWave heightAir tempDewpointWater temp
2017-Oct-31 07:38N 38°03' E 024°19'13 8.3
2017-Oct-31 06:00N 38°01' E 024°02'3 0.3
2017-Oct-30 16:22N 38°02' E 024°07'4 4.6
2017-Oct-30 15:31N 38°01' E 024°02'013.8
2017-Oct-30 15:30N 38°01' E 024°02'814.1
2017-Oct-30 14:55N 38°02' E 024°12'7 4.2
2017-Oct-30 13:11N 38°01' E 024°03'2 0.4
2017-Oct-30 08:49N 38°01' E 024°01'414.0
2017-Oct-30 08:30N 38°02' E 024°06'1010.8
2017-Oct-30 07:34N 38°03' E 024°19'1213.9
2017-Oct-30 06:41N 38°02' E 024°04'1 2.0
2017-Oct-30 06:01N 38°01' E 024°02'013.9
2017-Oct-30 06:00N 38°01' E 024°02'5 0.4
2017-Oct-29 18:43N 38°02' E 024°08'414.6
2017-Oct-29 18:29N 38°02' E 024°04'1 2.0
2017-Oct-29 18:00N 38°01' E 024°02'813.8
2017-Oct-29 17:27N 38°02' E 024°12'4 2.4
2017-Oct-29 15:40N 38°02' E 024°07'214.4
2017-Oct-29 15:30N 38°02' E 024°04'1 2.0
2017-Oct-29 15:00N 38°02' E 024°02'813.8
2017-Oct-29 14:27N 38°02' E 024°12'5 0.7
2017-Oct-29 07:21N 38°02' E 024°06'3 3.9
2017-Oct-29 06:33N 38°01' E 024°02'113.7
2017-Oct-29 06:27N 38°01' E 024°04'613.6
2017-Oct-29 06:00N 38°02' E 024°12'6 0.4
2017-Oct-28 15:40N 38°03' E 024°19'14 8.4
2017-Oct-28 14:01N 38°01' E 024°02'014.3
2017-Oct-28 14:00N 38°01' E 024°02'4 0.8
2017-Oct-28 08:52N 38°02' E 024°07'4 4.4
2017-Oct-28 07:52N 38°01' E 024°01'513.9
2017-Oct-28 07:30N 38°02' E 024°08'3 1.5
2017-Oct-28 05:45N 38°02' E 024°05'2 3.3
2017-Oct-28 05:03N 38°01' E 024°02'114.0
2017-Oct-28 05:00N 38°01' E 024°02'1113.8
2017-Oct-28 04:13N 38°02' E 024°16'9 0.8
2017-Oct-27 16:17N 38°02' E 024°05'3 2.5
2017-Oct-27 15:04N 38°01' E 024°01'113.2
2017-Oct-27 15:00N 38°01' E 024°02'2 0.7
2017-Oct-27 12:15N 38°02' E 024°04'3 0.6
2017-Oct-27 07:36N 38°01' E 024°01'213.4
2017-Oct-27 07:30N 38°01' E 024°03'713.9
2017-Oct-27 06:59N 38°02' E 024°12'  
2017-Oct-23 05:01N 38°01' E 024°02'014.2
2017-Oct-23 05:00N 38°01' E 024°02'2 0.2
2017-Oct-22 17:30N 38°02' E 024°04'2 3.7
2017-Oct-22 17:00N 38°01' E 024°02'814.0
2017-Oct-22 16:25N 38°02' E 024°12'7 3.5
2017-Oct-22 14:30N 38°02' E 024°04'1 2.4
2017-Oct-22 14:00N 38°01' E 024°03'4 0.5
2017-Oct-22 06:23N 38°02' E 024°07'4 4.3
2017-Oct-22 05:30N 38°01' E 024°02'1113.9
2017-Oct-22 04:41N 38°02' E 024°17'12 0.8
2017-Oct-21 14:03N 38°01' E 024°01'  

Dump ship's entire track history